sensor_id;sensor_type;location;lat;lon;timestamp;P1;durP1;ratioP1;P2;durP2;ratioP2
17520;SDS011;8878;-33.370;-70.552;2023-07-13T00:00:38;0.60;;;0.47;;
17520;SDS011;8878;-33.370;-70.552;2023-07-13T00:03:10;0.40;;;0.40;;
17520;SDS011;8878;-33.370;-70.552;2023-07-13T00:05:39;0.97;;;0.40;;
17520;SDS011;8878;-33.370;-70.552;2023-07-13T00:08:09;0.33;;;0.33;;
17520;SDS011;8878;-33.370;-70.552;2023-07-13T00:10:41;0.47;;;0.47;;
17520;SDS011;8878;-33.370;-70.552;2023-07-13T00:13:12;0.43;;;0.43;;
17520;SDS011;8878;-33.370;-70.552;2023-07-13T00:15:42;0.37;;;0.30;;
17520;SDS011;8878;-33.370;-70.552;2023-07-13T00:18:13;0.40;;;0.40;;
17520;SDS011;8878;-33.370;-70.552;2023-07-13T00:20:42;0.40;;;0.40;;
17520;SDS011;8878;-33.370;-70.552;2023-07-13T00:23:12;0.43;;;0.43;;
17520;SDS011;8878;-33.370;-70.552;2023-07-13T00:25:41;0.50;;;0.43;;
17520;SDS011;8878;-33.370;-70.552;2023-07-13T00:28:11;0.93;;;0.67;;
17520;SDS011;8878;-33.370;-70.552;2023-07-13T00:30:40;0.40;;;0.30;;
17520;SDS011;8878;-33.370;-70.552;2023-07-13T00:33:11;0.40;;;0.40;;
17520;SDS011;8878;-33.370;-70.552;2023-07-13T00:35:42;0.30;;;0.30;;
17520;SDS011;8878;-33.370;-70.552;2023-07-13T00:38:11;0.70;;;0.20;;
17520;SDS011;8878;-33.370;-70.552;2023-07-13T00:40:41;1.27;;;0.70;;
17520;SDS011;8878;-33.370;-70.552;2023-07-13T00:43:12;0.43;;;0.43;;
17520;SDS011;8878;-33.370;-70.552;2023-07-13T00:48:53;1.20;;;1.10;;
17520;SDS011;8878;-33.370;-70.552;2023-07-13T00:51:26;0.67;;;0.67;;
17520;SDS011;8878;-33.370;-70.552;2023-07-13T00:54:00;0.83;;;0.83;;
17520;SDS011;8878;-33.370;-70.552;2023-07-13T00:56:34;0.80;;;0.80;;
17520;SDS011;8878;-33.370;-70.552;2023-07-13T00:59:05;0.43;;;0.43;;
17520;SDS011;8878;-33.370;-70.552;2023-07-13T01:01:37;1.27;;;0.70;;
17520;SDS011;8878;-33.370;-70.552;2023-07-13T01:04:09;0.50;;;0.50;;
17520;SDS011;8878;-33.370;-70.552;2023-07-13T01:06:39;0.33;;;0.33;;
17520;SDS011;8878;-33.370;-70.552;2023-07-13T01:09:10;2.33;;;0.70;;
17520;SDS011;8878;-33.370;-70.552;2023-07-13T01:11:41;0.80;;;0.70;;
17520;SDS011;8878;-33.370;-70.552;2023-07-13T01:14:10;0.57;;;0.57;;
17520;SDS011;8878;-33.370;-70.552;2023-07-13T01:16:41;0.83;;;0.83;;
17520;SDS011;8878;-33.370;-70.552;2023-07-13T01:19:17;1.80;;;1.17;;
17520;SDS011;8878;-33.370;-70.552;2023-07-13T01:21:57;0.47;;;0.47;;
17520;SDS011;8878;-33.370;-70.552;2023-07-13T01:24:27;2.80;;;0.80;;
17520;SDS011;8878;-33.370;-70.552;2023-07-13T01:26:56;0.77;;;0.73;;
17520;SDS011;8878;-33.370;-70.552;2023-07-13T01:29:25;0.40;;;0.40;;
17520;SDS011;8878;-33.370;-70.552;2023-07-13T01:31:55;0.63;;;0.37;;
17520;SDS011;8878;-33.370;-70.552;2023-07-13T01:34:25;0.63;;;0.37;;
17520;SDS011;8878;-33.370;-70.552;2023-07-13T01:36:57;0.33;;;0.33;;
17520;SDS011;8878;-33.370;-70.552;2023-07-13T01:39:27;0.30;;;0.30;;
17520;SDS011;8878;-33.370;-70.552;2023-07-13T01:41:56;2.13;;;0.40;;
17520;SDS011;8878;-33.370;-70.552;2023-07-13T01:44:26;0.87;;;0.87;;
17520;SDS011;8878;-33.370;-70.552;2023-07-13T01:46:56;5.50;;;0.20;;
17520;SDS011;8878;-33.370;-70.552;2023-07-13T01:49:25;0.43;;;0.40;;
17520;SDS011;8878;-33.370;-70.552;2023-07-13T01:51:55;0.30;;;0.30;;
17520;SDS011;8878;-33.370;-70.552;2023-07-13T01:54:26;0.77;;;0.73;;
17520;SDS011;8878;-33.370;-70.552;2023-07-13T01:56:55;0.67;;;0.33;;
17520;SDS011;8878;-33.370;-70.552;2023-07-13T01:59:25;0.40;;;0.40;;
17520;SDS011;8878;-33.370;-70.552;2023-07-13T02:01:54;0.70;;;0.33;;
17520;SDS011;8878;-33.370;-70.552;2023-07-13T02:04:23;0.10;;;0.10;;
17520;SDS011;8878;-33.370;-70.552;2023-07-13T02:06:53;0.30;;;0.30;;
17520;SDS011;8878;-33.370;-70.552;2023-07-13T02:09:24;0.40;;;0.40;;
17520;SDS011;8878;-33.370;-70.552;2023-07-13T02:11:54;0.20;;;0.20;;
17520;SDS011;8878;-33.370;-70.552;2023-07-13T02:14:24;0.80;;;0.80;;
17520;SDS011;8878;-33.370;-70.552;2023-07-13T02:16:53;2.43;;;1.63;;
17520;SDS011;8878;-33.370;-70.552;2023-07-13T02:19:24;4.60;;;3.03;;
17520;SDS011;8878;-33.370;-70.552;2023-07-13T02:21:54;3.73;;;2.80;;
17520;SDS011;8878;-33.370;-70.552;2023-07-13T02:24:25;1.73;;;1.60;;
17520;SDS011;8878;-33.370;-70.552;2023-07-13T02:26:55;0.33;;;0.33;;
17520;SDS011;8878;-33.370;-70.552;2023-07-13T02:29:24;0.23;;;0.23;;
17520;SDS011;8878;-33.370;-70.552;2023-07-13T02:31:54;0.87;;;0.40;;
17520;SDS011;8878;-33.370;-70.552;2023-07-13T02:34:24;0.40;;;0.40;;
17520;SDS011;8878;-33.370;-70.552;2023-07-13T02:36:54;0.10;;;0.10;;
17520;SDS011;8878;-33.370;-70.552;2023-07-13T02:39:25;0.20;;;0.20;;
17520;SDS011;8878;-33.370;-70.552;2023-07-13T02:41:55;0.13;;;0.13;;
17520;SDS011;8878;-33.370;-70.552;2023-07-13T02:44:24;0.10;;;0.10;;
17520;SDS011;8878;-33.370;-70.552;2023-07-13T02:46:53;0.27;;;0.20;;
17520;SDS011;8878;-33.370;-70.552;2023-07-13T02:49:23;0.10;;;0.10;;
17520;SDS011;8878;-33.370;-70.552;2023-07-13T02:51:52;0.87;;;0.63;;
17520;SDS011;8878;-33.370;-70.552;2023-07-13T02:54:22;2.00;;;0.43;;
17520;SDS011;8878;-33.370;-70.552;2023-07-13T02:56:53;0.40;;;0.40;;
17520;SDS011;8878;-33.370;-70.552;2023-07-13T02:59:22;1.07;;;0.83;;
17520;SDS011;8878;-33.370;-70.552;2023-07-13T03:01:51;0.70;;;0.57;;
17520;SDS011;8878;-33.370;-70.552;2023-07-13T03:04:21;0.30;;;0.30;;
17520;SDS011;8878;-33.370;-70.552;2023-07-13T03:06:51;0.40;;;0.40;;
17520;SDS011;8878;-33.370;-70.552;2023-07-13T03:09:23;1.30;;;0.83;;
17520;SDS011;8878;-33.370;-70.552;2023-07-13T03:11:55;0.23;;;0.23;;
17520;SDS011;8878;-33.370;-70.552;2023-07-13T03:14:25;0.30;;;0.30;;
17520;SDS011;8878;-33.370;-70.552;2023-07-13T03:16:56;0.97;;;0.40;;
17520;SDS011;8878;-33.370;-70.552;2023-07-13T03:19:25;0.93;;;0.40;;
17520;SDS011;8878;-33.370;-70.552;2023-07-13T03:21:55;0.20;;;0.10;;
17520;SDS011;8878;-33.370;-70.552;2023-07-13T03:24:24;0.23;;;0.23;;
17520;SDS011;8878;-33.370;-70.552;2023-07-13T03:26:56;0.33;;;0.33;;
17520;SDS011;8878;-33.370;-70.552;2023-07-13T03:29:25;0.10;;;0.10;;
17520;SDS011;8878;-33.370;-70.552;2023-07-13T03:31:54;0.70;;;0.47;;
17520;SDS011;8878;-33.370;-70.552;2023-07-13T03:34:24;0.00;;;0.00;;
17520;SDS011;8878;-33.370;-70.552;2023-07-13T03:36:53;0.20;;;0.20;;
17520;SDS011;8878;-33.370;-70.552;2023-07-13T03:39:23;0.20;;;0.17;;
17520;SDS011;8878;-33.370;-70.552;2023-07-13T03:41:52;0.10;;;0.10;;
17520;SDS011;8878;-33.370;-70.552;2023-07-13T03:44:24;0.57;;;0.13;;
17520;SDS011;8878;-33.370;-70.552;2023-07-13T03:46:53;0.10;;;0.10;;
17520;SDS011;8878;-33.370;-70.552;2023-07-13T03:49:22;0.20;;;0.20;;
17520;SDS011;8878;-33.370;-70.552;2023-07-13T03:51:52;0.20;;;0.20;;
17520;SDS011;8878;-33.370;-70.552;2023-07-13T03:54:21;0.13;;;0.13;;
17520;SDS011;8878;-33.370;-70.552;2023-07-13T03:56:51;0.73;;;0.20;;
17520;SDS011;8878;-33.370;-70.552;2023-07-13T03:59:22;0.37;;;0.37;;
17520;SDS011;8878;-33.370;-70.552;2023-07-13T04:01:52;0.37;;;0.37;;
17520;SDS011;8878;-33.370;-70.552;2023-07-13T04:04:21;0.50;;;0.50;;
17520;SDS011;8878;-33.370;-70.552;2023-07-13T04:06:50;0.20;;;0.20;;
17520;SDS011;8878;-33.370;-70.552;2023-07-13T04:09:20;2.63;;;0.40;;
17520;SDS011;8878;-33.370;-70.552;2023-07-13T04:11:50;0.27;;;0.20;;
17520;SDS011;8878;-33.370;-70.552;2023-07-13T04:14:19;0.10;;;0.10;;
17520;SDS011;8878;-33.370;-70.552;2023-07-13T04:16:51;0.43;;;0.43;;
17520;SDS011;8878;-33.370;-70.552;2023-07-13T04:19:20;0.10;;;0.10;;
17520;SDS011;8878;-33.370;-70.552;2023-07-13T04:21:49;0.50;;;0.50;;
17520;SDS011;8878;-33.370;-70.552;2023-07-13T04:24:19;0.70;;;0.10;;
17520;SDS011;8878;-33.370;-70.552;2023-07-13T04:26:49;0.30;;;0.20;;
17520;SDS011;8878;-33.370;-70.552;2023-07-13T04:29:18;0.93;;;0.47;;
17520;SDS011;8878;-33.370;-70.552;2023-07-13T04:31:49;0.93;;;0.60;;
17520;SDS011;8878;-33.370;-70.552;2023-07-13T04:34:19;0.20;;;0.20;;
17520;SDS011;8878;-33.370;-70.552;2023-07-13T04:36:48;0.43;;;0.43;;
17520;SDS011;8878;-33.370;-70.552;2023-07-13T04:39:18;0.40;;;0.37;;
17520;SDS011;8878;-33.370;-70.552;2023-07-13T04:41:47;1.37;;;0.20;;
17520;SDS011;8878;-33.370;-70.552;2023-07-13T04:44:17;0.97;;;0.20;;
17520;SDS011;8878;-33.370;-70.552;2023-07-13T04:46:46;0.47;;;0.47;;
17520;SDS011;8878;-33.370;-70.552;2023-07-13T04:49:17;0.37;;;0.33;;
17520;SDS011;8878;-33.370;-70.552;2023-07-13T04:51:46;0.20;;;0.20;;
17520;SDS011;8878;-33.370;-70.552;2023-07-13T04:54:16;0.50;;;0.50;;
17520;SDS011;8878;-33.370;-70.552;2023-07-13T04:56:45;0.30;;;0.30;;
17520;SDS011;8878;-33.370;-70.552;2023-07-13T04:59:14;1.23;;;0.67;;
17520;SDS011;8878;-33.370;-70.552;2023-07-13T05:01:44;0.20;;;0.20;;
17520;SDS011;8878;-33.370;-70.552;2023-07-13T05:04:15;0.47;;;0.33;;
17520;SDS011;8878;-33.370;-70.552;2023-07-13T05:06:44;0.77;;;0.37;;
17520;SDS011;8878;-33.370;-70.552;2023-07-13T05:09:14;0.20;;;0.10;;
17520;SDS011;8878;-33.370;-70.552;2023-07-13T05:11:43;0.37;;;0.37;;
17520;SDS011;8878;-33.370;-70.552;2023-07-13T05:14:13;0.30;;;0.30;;
17520;SDS011;8878;-33.370;-70.552;2023-07-13T05:16:42;0.20;;;0.20;;
17520;SDS011;8878;-33.370;-70.552;2023-07-13T05:19:13;0.10;;;0.10;;
17520;SDS011;8878;-33.370;-70.552;2023-07-13T05:21:44;0.23;;;0.23;;
17520;SDS011;8878;-33.370;-70.552;2023-07-13T05:24:13;0.50;;;0.20;;
17520;SDS011;8878;-33.370;-70.552;2023-07-13T05:26:42;0.20;;;0.20;;
17520;SDS011;8878;-33.370;-70.552;2023-07-13T05:29:12;0.10;;;0.10;;
17520;SDS011;8878;-33.370;-70.552;2023-07-13T05:31:42;0.60;;;0.60;;
17520;SDS011;8878;-33.370;-70.552;2023-07-13T05:34:11;0.10;;;0.10;;
17520;SDS011;8878;-33.370;-70.552;2023-07-13T05:36:42;0.30;;;0.30;;
17520;SDS011;8878;-33.370;-70.552;2023-07-13T05:39:12;0.30;;;0.30;;
17520;SDS011;8878;-33.370;-70.552;2023-07-13T05:41:41;0.17;;;0.17;;
17520;SDS011;8878;-33.370;-70.552;2023-07-13T05:44:11;0.27;;;0.27;;
17520;SDS011;8878;-33.370;-70.552;2023-07-13T05:46:40;0.20;;;0.20;;
17520;SDS011;8878;-33.370;-70.552;2023-07-13T05:49:10;0.20;;;0.20;;
17520;SDS011;8878;-33.370;-70.552;2023-07-13T05:51:39;0.27;;;0.27;;
17520;SDS011;8878;-33.370;-70.552;2023-07-13T05:54:10;0.10;;;0.10;;
17520;SDS011;8878;-33.370;-70.552;2023-07-13T05:56:40;0.40;;;0.27;;
17520;SDS011;8878;-33.370;-70.552;2023-07-13T05:59:09;0.47;;;0.20;;
17520;SDS011;8878;-33.370;-70.552;2023-07-13T06:01:39;0.03;;;0.03;;
17520;SDS011;8878;-33.370;-70.552;2023-07-13T06:04:09;0.10;;;0.10;;
17520;SDS011;8878;-33.370;-70.552;2023-07-13T06:06:38;0.10;;;0.10;;
17520;SDS011;8878;-33.370;-70.552;2023-07-13T06:09:10;0.00;;;0.00;;
17520;SDS011;8878;-33.370;-70.552;2023-07-13T06:11:39;0.00;;;0.00;;
17520;SDS011;8878;-33.370;-70.552;2023-07-13T06:14:08;0.10;;;0.10;;
17520;SDS011;8878;-33.370;-70.552;2023-07-13T06:16:39;0.10;;;0.10;;
17520;SDS011;8878;-33.370;-70.552;2023-07-13T06:19:09;0.27;;;0.27;;
17520;SDS011;8878;-33.370;-70.552;2023-07-13T06:21:38;0.20;;;0.20;;
17520;SDS011;8878;-33.370;-70.552;2023-07-13T06:24:09;0.10;;;0.10;;
17520;SDS011;8878;-33.370;-70.552;2023-07-13T06:26:38;0.10;;;0.10;;
17520;SDS011;8878;-33.370;-70.552;2023-07-13T06:29:08;0.10;;;0.10;;
17520;SDS011;8878;-33.370;-70.552;2023-07-13T06:31:37;0.13;;;0.13;;
17520;SDS011;8878;-33.370;-70.552;2023-07-13T06:34:06;0.00;;;0.00;;
17520;SDS011;8878;-33.370;-70.552;2023-07-13T06:36:36;0.10;;;0.10;;
17520;SDS011;8878;-33.370;-70.552;2023-07-13T06:39:06;0.10;;;0.10;;
17520;SDS011;8878;-33.370;-70.552;2023-07-13T06:41:37;0.23;;;0.23;;
17520;SDS011;8878;-33.370;-70.552;2023-07-13T06:44:07;0.43;;;0.33;;
17520;SDS011;8878;-33.370;-70.552;2023-07-13T06:46:36;0.00;;;0.00;;
17520;SDS011;8878;-33.370;-70.552;2023-07-13T06:49:05;0.10;;;0.10;;
17520;SDS011;8878;-33.370;-70.552;2023-07-13T06:51:36;0.20;;;0.20;;
17520;SDS011;8878;-33.370;-70.552;2023-07-13T06:54:05;0.33;;;0.20;;
17520;SDS011;8878;-33.370;-70.552;2023-07-13T06:56:37;0.63;;;0.30;;
17520;SDS011;8878;-33.370;-70.552;2023-07-13T06:59:06;0.20;;;0.20;;
17520;SDS011;8878;-33.370;-70.552;2023-07-13T07:01:35;0.40;;;0.20;;
17520;SDS011;8878;-33.370;-70.552;2023-07-13T07:04:05;0.30;;;0.30;;
17520;SDS011;8878;-33.370;-70.552;2023-07-13T07:06:34;0.20;;;0.20;;
17520;SDS011;8878;-33.370;-70.552;2023-07-13T07:09:04;0.10;;;0.10;;
17520;SDS011;8878;-33.370;-70.552;2023-07-13T07:11:36;0.80;;;0.40;;
17520;SDS011;8878;-33.370;-70.552;2023-07-13T07:14:06;0.10;;;0.10;;
17520;SDS011;8878;-33.370;-70.552;2023-07-13T07:16:36;1.00;;;0.17;;
17520;SDS011;8878;-33.370;-70.552;2023-07-13T07:19:05;0.10;;;0.10;;
17520;SDS011;8878;-33.370;-70.552;2023-07-13T07:21:35;0.30;;;0.30;;
17520;SDS011;8878;-33.370;-70.552;2023-07-13T07:24:04;0.10;;;0.10;;
17520;SDS011;8878;-33.370;-70.552;2023-07-13T07:26:36;0.43;;;0.43;;
17520;SDS011;8878;-33.370;-70.552;2023-07-13T07:29:05;0.10;;;0.10;;
17520;SDS011;8878;-33.370;-70.552;2023-07-13T07:31:35;0.20;;;0.20;;
17520;SDS011;8878;-33.370;-70.552;2023-07-13T07:34:05;0.10;;;0.10;;
17520;SDS011;8878;-33.370;-70.552;2023-07-13T07:36:35;0.20;;;0.20;;
17520;SDS011;8878;-33.370;-70.552;2023-07-13T07:39:05;0.00;;;0.00;;
17520;SDS011;8878;-33.370;-70.552;2023-07-13T07:41:34;0.60;;;0.60;;
17520;SDS011;8878;-33.370;-70.552;2023-07-13T07:44:05;0.40;;;0.40;;
17520;SDS011;8878;-33.370;-70.552;2023-07-13T07:46:35;0.40;;;0.40;;
17520;SDS011;8878;-33.370;-70.552;2023-07-13T07:49:06;0.00;;;0.00;;
17520;SDS011;8878;-33.370;-70.552;2023-07-13T07:51:36;0.20;;;0.20;;
17520;SDS011;8878;-33.370;-70.552;2023-07-13T07:54:06;0.13;;;0.13;;
17520;SDS011;8878;-33.370;-70.552;2023-07-13T07:56:37;0.20;;;0.10;;
17520;SDS011;8878;-33.370;-70.552;2023-07-13T07:59:06;0.10;;;0.10;;
17520;SDS011;8878;-33.370;-70.552;2023-07-13T08:01:36;0.10;;;0.10;;
17520;SDS011;8878;-33.370;-70.552;2023-07-13T08:04:05;0.00;;;0.00;;
17520;SDS011;8878;-33.370;-70.552;2023-07-13T08:06:35;0.10;;;0.10;;
17520;SDS011;8878;-33.370;-70.552;2023-07-13T08:09:04;0.07;;;0.07;;
17520;SDS011;8878;-33.370;-70.552;2023-07-13T08:11:34;0.10;;;0.10;;
17520;SDS011;8878;-33.370;-70.552;2023-07-13T08:14:06;0.13;;;0.13;;
17520;SDS011;8878;-33.370;-70.552;2023-07-13T08:16:36;0.43;;;0.37;;
17520;SDS011;8878;-33.370;-70.552;2023-07-13T08:19:05;0.10;;;0.10;;
17520;SDS011;8878;-33.370;-70.552;2023-07-13T08:21:34;0.00;;;0.00;;
17520;SDS011;8878;-33.370;-70.552;2023-07-13T08:24:04;0.10;;;0.10;;
17520;SDS011;8878;-33.370;-70.552;2023-07-13T08:26:34;0.00;;;0.00;;
17520;SDS011;8878;-33.370;-70.552;2023-07-13T08:29:05;0.10;;;0.00;;
17520;SDS011;8878;-33.370;-70.552;2023-07-13T08:31:34;0.00;;;0.00;;
17520;SDS011;8878;-33.370;-70.552;2023-07-13T08:34:03;0.00;;;0.00;;
17520;SDS011;8878;-33.370;-70.552;2023-07-13T08:36:34;0.10;;;0.10;;
17520;SDS011;8878;-33.370;-70.552;2023-07-13T08:39:05;0.00;;;0.00;;
17520;SDS011;8878;-33.370;-70.552;2023-07-13T08:41:37;0.20;;;0.20;;
17520;SDS011;8878;-33.370;-70.552;2023-07-13T08:44:07;0.00;;;0.00;;
17520;SDS011;8878;-33.370;-70.552;2023-07-13T08:46:48;0.10;;;0.10;;
17520;SDS011;8878;-33.370;-70.552;2023-07-13T08:49:21;0.00;;;0.00;;
17520;SDS011;8878;-33.370;-70.552;2023-07-13T08:51:53;0.00;;;0.00;;
17520;SDS011;8878;-33.370;-70.552;2023-07-13T08:54:28;0.27;;;0.27;;
17520;SDS011;8878;-33.370;-70.552;2023-07-13T08:57:03;0.00;;;0.00;;
17520;SDS011;8878;-33.370;-70.552;2023-07-13T08:59:40;2.73;;;0.53;;
17520;SDS011;8878;-33.370;-70.552;2023-07-13T09:02:16;0.00;;;0.00;;
17520;SDS011;8878;-33.370;-70.552;2023-07-13T09:04:52;0.00;;;0.00;;
17520;SDS011;8878;-33.370;-70.552;2023-07-13T09:07:34;0.20;;;0.20;;
17520;SDS011;8878;-33.370;-70.552;2023-07-13T09:10:15;0.77;;;0.50;;
17520;SDS011;8878;-33.370;-70.552;2023-07-13T09:12:54;0.10;;;0.10;;
17520;SDS011;8878;-33.370;-70.552;2023-07-13T09:15:31;0.00;;;0.00;;
17520;SDS011;8878;-33.370;-70.552;2023-07-13T09:18:04;0.47;;;0.47;;
17520;SDS011;8878;-33.370;-70.552;2023-07-13T09:20:39;0.13;;;0.10;;
17520;SDS011;8878;-33.370;-70.552;2023-07-13T09:23:15;0.07;;;0.07;;
17520;SDS011;8878;-33.370;-70.552;2023-07-13T09:25:47;0.00;;;0.00;;
17520;SDS011;8878;-33.370;-70.552;2023-07-13T09:28:23;0.00;;;0.00;;
17520;SDS011;8878;-33.370;-70.552;2023-07-13T09:30:56;0.00;;;0.00;;
17520;SDS011;8878;-33.370;-70.552;2023-07-13T09:33:29;0.10;;;0.10;;
17520;SDS011;8878;-33.370;-70.552;2023-07-13T09:36:01;0.10;;;0.10;;
17520;SDS011;8878;-33.370;-70.552;2023-07-13T09:38:45;0.00;;;0.00;;
17520;SDS011;8878;-33.370;-70.552;2023-07-13T09:41:18;0.00;;;0.00;;
17520;SDS011;8878;-33.370;-70.552;2023-07-13T09:44:07;0.00;;;0.00;;
17520;SDS011;8878;-33.370;-70.552;2023-07-13T09:46:37;0.00;;;0.00;;
17520;SDS011;8878;-33.370;-70.552;2023-07-13T09:49:11;11.03;;;0.30;;
17520;SDS011;8878;-33.370;-70.552;2023-07-13T09:51:41;0.00;;;0.00;;
17520;SDS011;8878;-33.370;-70.552;2023-07-13T09:54:18;0.10;;;0.10;;
17520;SDS011;8878;-33.370;-70.552;2023-07-13T09:56:54;0.10;;;0.10;;
17520;SDS011;8878;-33.370;-70.552;2023-07-13T09:59:27;0.20;;;0.17;;
17520;SDS011;8878;-33.370;-70.552;2023-07-13T10:01:58;0.10;;;0.10;;
17520;SDS011;8878;-33.370;-70.552;2023-07-13T10:04:30;0.00;;;0.00;;
17520;SDS011;8878;-33.370;-70.552;2023-07-13T10:07:07;0.00;;;0.00;;
17520;SDS011;8878;-33.370;-70.552;2023-07-13T10:09:40;0.40;;;0.40;;
17520;SDS011;8878;-33.370;-70.552;2023-07-13T10:12:14;0.20;;;0.20;;
17520;SDS011;8878;-33.370;-70.552;2023-07-13T10:14:45;0.33;;;0.33;;
17520;SDS011;8878;-33.370;-70.552;2023-07-13T10:17:16;0.10;;;0.10;;
17520;SDS011;8878;-33.370;-70.552;2023-07-13T10:19:53;0.13;;;0.13;;
17520;SDS011;8878;-33.370;-70.552;2023-07-13T10:22:27;0.20;;;0.20;;
17520;SDS011;8878;-33.370;-70.552;2023-07-13T10:25:00;0.73;;;0.30;;
17520;SDS011;8878;-33.370;-70.552;2023-07-13T10:27:31;0.20;;;0.20;;
17520;SDS011;8878;-33.370;-70.552;2023-07-13T10:30:04;0.10;;;0.10;;
17520;SDS011;8878;-33.370;-70.552;2023-07-13T10:32:42;0.00;;;0.00;;
17520;SDS011;8878;-33.370;-70.552;2023-07-13T10:35:12;0.00;;;0.00;;
17520;SDS011;8878;-33.370;-70.552;2023-07-13T10:37:44;0.00;;;0.00;;
17520;SDS011;8878;-33.370;-70.552;2023-07-13T10:40:21;0.00;;;0.00;;
17520;SDS011;8878;-33.370;-70.552;2023-07-13T10:42:56;0.00;;;0.00;;
17520;SDS011;8878;-33.370;-70.552;2023-07-13T10:45:34;0.10;;;0.10;;
17520;SDS011;8878;-33.370;-70.552;2023-07-13T10:48:04;0.10;;;0.10;;
17520;SDS011;8878;-33.370;-70.552;2023-07-13T10:50:36;0.10;;;0.10;;
17520;SDS011;8878;-33.370;-70.552;2023-07-13T10:53:18;0.10;;;0.10;;
17520;SDS011;8878;-33.370;-70.552;2023-07-13T10:55:58;0.20;;;0.20;;
17520;SDS011;8878;-33.370;-70.552;2023-07-13T10:58:35;0.00;;;0.00;;
17520;SDS011;8878;-33.370;-70.552;2023-07-13T11:01:11;0.87;;;0.10;;
17520;SDS011;8878;-33.370;-70.552;2023-07-13T11:03:47;0.00;;;0.00;;
17520;SDS011;8878;-33.370;-70.552;2023-07-13T11:06:32;0.00;;;0.00;;
17520;SDS011;8878;-33.370;-70.552;2023-07-13T11:09:17;0.00;;;0.00;;
17520;SDS011;8878;-33.370;-70.552;2023-07-13T11:12:02;0.00;;;0.00;;
17520;SDS011;8878;-33.370;-70.552;2023-07-13T11:14:42;0.00;;;0.00;;
17520;SDS011;8878;-33.370;-70.552;2023-07-13T11:17:36;0.00;;;0.00;;
17520;SDS011;8878;-33.370;-70.552;2023-07-13T11:20:22;0.00;;;0.00;;
17520;SDS011;8878;-33.370;-70.552;2023-07-13T11:23:19;0.00;;;0.00;;
17520;SDS011;8878;-33.370;-70.552;2023-07-13T11:25:57;0.00;;;0.00;;
17520;SDS011;8878;-33.370;-70.552;2023-07-13T11:28:27;0.00;;;0.00;;
17520;SDS011;8878;-33.370;-70.552;2023-07-13T11:31:02;0.07;;;0.07;;
17520;SDS011;8878;-33.370;-70.552;2023-07-13T11:36:31;0.00;;;0.00;;
17520;SDS011;8878;-33.370;-70.552;2023-07-13T11:39:12;0.17;;;0.10;;
17520;SDS011;8878;-33.370;-70.552;2023-07-13T11:41:49;0.00;;;0.00;;
17520;SDS011;8878;-33.370;-70.552;2023-07-13T11:44:21;0.00;;;0.00;;
17520;SDS011;8878;-33.370;-70.552;2023-07-13T11:46:52;0.10;;;0.10;;
17520;SDS011;8878;-33.370;-70.552;2023-07-13T11:49:25;0.43;;;0.17;;
17520;SDS011;8878;-33.370;-70.552;2023-07-13T11:51:58;0.00;;;0.00;;
17520;SDS011;8878;-33.370;-70.552;2023-07-13T11:54:31;0.00;;;0.00;;
17520;SDS011;8878;-33.370;-70.552;2023-07-13T11:57:01;0.00;;;0.00;;
17520;SDS011;8878;-33.370;-70.552;2023-07-13T11:59:38;0.10;;;0.10;;
17520;SDS011;8878;-33.370;-70.552;2023-07-13T12:02:13;0.00;;;0.00;;
17520;SDS011;8878;-33.370;-70.552;2023-07-13T12:04:52;0.00;;;0.00;;
17520;SDS011;8878;-33.370;-70.552;2023-07-13T12:07:23;0.00;;;0.00;;
17520;SDS011;8878;-33.370;-70.552;2023-07-13T12:09:53;0.00;;;0.00;;
17520;SDS011;8878;-33.370;-70.552;2023-07-13T12:12:28;0.00;;;0.00;;
17520;SDS011;8878;-33.370;-70.552;2023-07-13T12:14:58;0.00;;;0.00;;
17520;SDS011;8878;-33.370;-70.552;2023-07-13T12:17:27;0.10;;;0.10;;
17520;SDS011;8878;-33.370;-70.552;2023-07-13T12:19:59;0.00;;;0.00;;
17520;SDS011;8878;-33.370;-70.552;2023-07-13T12:22:31;0.10;;;0.10;;
17520;SDS011;8878;-33.370;-70.552;2023-07-13T12:25:01;0.10;;;0.10;;
17520;SDS011;8878;-33.370;-70.552;2023-07-13T12:27:31;0.00;;;0.00;;
17520;SDS011;8878;-33.370;-70.552;2023-07-13T12:30:02;0.00;;;0.00;;
17520;SDS011;8878;-33.370;-70.552;2023-07-13T12:32:34;0.00;;;0.00;;
17520;SDS011;8878;-33.370;-70.552;2023-07-13T12:35:12;0.00;;;0.00;;
17520;SDS011;8878;-33.370;-70.552;2023-07-13T12:37:45;0.00;;;0.00;;
17520;SDS011;8878;-33.370;-70.552;2023-07-13T12:40:15;0.00;;;0.00;;
17520;SDS011;8878;-33.370;-70.552;2023-07-13T12:42:48;0.03;;;0.03;;
17520;SDS011;8878;-33.370;-70.552;2023-07-13T12:45:21;0.10;;;0.10;;
17520;SDS011;8878;-33.370;-70.552;2023-07-13T12:47:53;0.13;;;0.10;;
17520;SDS011;8878;-33.370;-70.552;2023-07-13T12:50:28;0.00;;;0.00;;
17520;SDS011;8878;-33.370;-70.552;2023-07-13T12:53:03;0.10;;;0.10;;
17520;SDS011;8878;-33.370;-70.552;2023-07-13T12:55:40;0.10;;;0.10;;
17520;SDS011;8878;-33.370;-70.552;2023-07-13T12:58:14;0.10;;;0.10;;
17520;SDS011;8878;-33.370;-70.552;2023-07-13T13:00:54;0.83;;;0.33;;
17520;SDS011;8878;-33.370;-70.552;2023-07-13T13:03:30;0.10;;;0.10;;
17520;SDS011;8878;-33.370;-70.552;2023-07-13T13:06:03;0.67;;;0.17;;
17520;SDS011;8878;-33.370;-70.552;2023-07-13T13:08:34;2.80;;;0.20;;
17520;SDS011;8878;-33.370;-70.552;2023-07-13T13:11:06;0.20;;;0.20;;
17520;SDS011;8878;-33.370;-70.552;2023-07-13T13:13:36;0.83;;;0.30;;
17520;SDS011;8878;-33.370;-70.552;2023-07-13T13:16:09;0.03;;;0.03;;
17520;SDS011;8878;-33.370;-70.552;2023-07-13T13:18:40;0.27;;;0.27;;
17520;SDS011;8878;-33.370;-70.552;2023-07-13T13:21:11;0.00;;;0.00;;
17520;SDS011;8878;-33.370;-70.552;2023-07-13T13:23:40;0.60;;;0.30;;
17520;SDS011;8878;-33.370;-70.552;2023-07-13T13:26:12;0.10;;;0.10;;
17520;SDS011;8878;-33.370;-70.552;2023-07-13T13:28:42;0.20;;;0.20;;
17520;SDS011;8878;-33.370;-70.552;2023-07-13T13:31:13;0.10;;;0.10;;
17520;SDS011;8878;-33.370;-70.552;2023-07-13T13:33:44;0.67;;;0.20;;
17520;SDS011;8878;-33.370;-70.552;2023-07-13T13:36:17;0.10;;;0.10;;
17520;SDS011;8878;-33.370;-70.552;2023-07-13T13:38:48;3.50;;;0.40;;
17520;SDS011;8878;-33.370;-70.552;2023-07-13T13:41:19;0.10;;;0.10;;
17520;SDS011;8878;-33.370;-70.552;2023-07-13T13:43:48;0.10;;;0.10;;
17520;SDS011;8878;-33.370;-70.552;2023-07-13T13:46:18;0.10;;;0.10;;
17520;SDS011;8878;-33.370;-70.552;2023-07-13T13:48:51;0.20;;;0.20;;
17520;SDS011;8878;-33.370;-70.552;2023-07-13T13:51:23;0.23;;;0.23;;
17520;SDS011;8878;-33.370;-70.552;2023-07-13T13:53:54;0.10;;;0.10;;
17520;SDS011;8878;-33.370;-70.552;2023-07-13T13:56:23;0.00;;;0.00;;
17520;SDS011;8878;-33.370;-70.552;2023-07-13T13:58:53;0.10;;;0.10;;
17520;SDS011;8878;-33.370;-70.552;2023-07-13T14:01:22;0.07;;;0.00;;
17520;SDS011;8878;-33.370;-70.552;2023-07-13T14:03:52;0.00;;;0.00;;
17520;SDS011;8878;-33.370;-70.552;2023-07-13T14:06:23;0.83;;;0.67;;
17520;SDS011;8878;-33.370;-70.552;2023-07-13T14:08:53;0.00;;;0.00;;
17520;SDS011;8878;-33.370;-70.552;2023-07-13T14:11:22;0.10;;;0.10;;
17520;SDS011;8878;-33.370;-70.552;2023-07-13T14:13:54;0.10;;;0.10;;
17520;SDS011;8878;-33.370;-70.552;2023-07-13T14:16:26;0.10;;;0.10;;
17520;SDS011;8878;-33.370;-70.552;2023-07-13T14:18:58;0.73;;;0.73;;
17520;SDS011;8878;-33.370;-70.552;2023-07-13T14:21:31;0.10;;;0.10;;
17520;SDS011;8878;-33.370;-70.552;2023-07-13T14:24:00;0.20;;;0.20;;
17520;SDS011;8878;-33.370;-70.552;2023-07-13T14:26:30;0.10;;;0.10;;
17520;SDS011;8878;-33.370;-70.552;2023-07-13T14:29:04;1.60;;;0.30;;
17520;SDS011;8878;-33.370;-70.552;2023-07-13T14:31:40;0.10;;;0.10;;
17520;SDS011;8878;-33.370;-70.552;2023-07-13T14:34:10;0.10;;;0.10;;
17520;SDS011;8878;-33.370;-70.552;2023-07-13T14:36:42;0.07;;;0.07;;
17520;SDS011;8878;-33.370;-70.552;2023-07-13T14:39:14;0.20;;;0.20;;
17520;SDS011;8878;-33.370;-70.552;2023-07-13T14:41:45;0.23;;;0.23;;
17520;SDS011;8878;-33.370;-70.552;2023-07-13T14:44:15;0.67;;;0.27;;
17520;SDS011;8878;-33.370;-70.552;2023-07-13T14:46:46;0.10;;;0.10;;
17520;SDS011;8878;-33.370;-70.552;2023-07-13T14:49:20;0.00;;;0.00;;
17520;SDS011;8878;-33.370;-70.552;2023-07-13T14:51:54;0.10;;;0.10;;